Flinterbothnia — PBLG — position and weather

sailwx.info

Track history (hours):
 
Tides and Currents Weather Stations Pressure Air Temp Water Temp Dewpoint Dewpoint Depression Visibility Wind Speed Wind Dir Waves Ship Positions

Flinterbothnia

Last reported at 2014-Dec-21 18:33 UTC. Time now 2014-Dec-21 19:27 UTC.
Position N 53°19' E 007°01'.

Length 82 m; draft 5.2 m.

Type: Cargo ship. MMSI: 244741000.

Date/timePositionNaut miles runAvg speedWind from/ knotsBaromVisibWave heightAir tempDewpointWater temp
2014-Dec-21 18:33N 53°19' E 007°01'0 0.0
2014-Dec-21 17:33N 53°19' E 007°02'0 0.1
2014-Dec-21 16:32N 53°19' E 007°01'0 0.1
2014-Dec-21 15:32N 53°19' E 007°01'0 0.0
2014-Dec-21 14:32N 53°19' E 007°01'0 0.0
2014-Dec-21 13:32N 53°19' E 007°01'0 0.0
2014-Dec-21 12:32N 53°19' E 007°01'0 0.0
2014-Dec-21 11:32N 53°19' E 007°01'0 0.2
2014-Dec-21 10:32N 53°19' E 007°01'0 0.0
2014-Dec-21 09:32N 53°19' E 007°01'0 0.0
2014-Dec-21 08:32N 53°19' E 007°01'0 0.0
2014-Dec-21 07:32N 53°19' E 007°01'0 0.0
2014-Dec-21 06:32N 53°19' E 007°01'0 0.0
2014-Dec-21 05:32N 53°19' E 007°01'0 0.1
2014-Dec-21 04:32N 53°19' E 007°01'0 0.0
2014-Dec-21 03:32N 53°19' E 007°01'0 0.0
2014-Dec-21 02:32N 53°19' E 007°01'0 0.1
2014-Dec-21 01:32N 53°19' E 007°01'0 0.0
2014-Dec-21 00:32N 53°19' E 007°01'0 0.1
2014-Dec-20 23:32N 53°19' E 007°01'0 0.2
2014-Dec-20 22:32N 53°19' E 007°02'0 0.0
2014-Dec-20 21:32N 53°19' E 007°02'0 0.0
2014-Dec-20 20:32N 53°19' E 007°02'2 1.6
2014-Dec-20 19:33N 53°20' E 006°60'1111.4
2014-Dec-20 18:33N 53°30' E 006°49'1211.7
2014-Dec-20 17:31N 53°37' E 006°32'4 2.2
2014-Dec-20 15:33N 53°41' E 006°32'6 6.2
2014-Dec-20 14:33N 53°44' E 006°41'34 6.6
2014-Dec-20 09:26N 53°53' E 007°36'7 5.5
2014-Dec-20 08:10N 53°55' E 007°48'3 4.8
2014-Dec-20 07:33N 53°56' E 007°53'5 4.9
2014-Dec-20 06:33N 53°57' E 008°01'5 4.9
2014-Dec-20 05:33N 54°00' E 008°07'4 3.8
2014-Dec-20 04:33N 54°00' E 008°13'7 7.0
2014-Dec-20 03:33N 53°59' E 008°25'1111.4
2014-Dec-20 02:34N 53°54' E 008°42'1111.1
2014-Dec-20 01:33N 53°51' E 009°00'5 5.4
2014-Dec-20 00:33N 53°54' E 009°09'5 4.6
2014-Dec-19 23:33N 53°57' E 009°14'6 6.0
2014-Dec-19 22:33N 54°02' E 009°18'6 5.8
2014-Dec-19 21:28N 54°09' E 009°21'8 8.4
2014-Dec-19 20:33N 54°12' E 009°33'6 6.1
2014-Dec-19 19:31N 54°17' E 009°39'4 3.7
2014-Dec-19 18:33N 54°19' E 009°43'6 6.5
2014-Dec-19 17:33N 54°21' E 009°54'8 7.9
2014-Dec-19 16:33N 54°22' E 010°07'2 1.6
2014-Dec-19 15:33N 54°22' E 010°10'3 2.6
2014-Dec-19 14:33N 54°24' E 010°12'9 9.2
2014-Dec-19 13:33N 54°29' E 010°26'12 9.8
2014-Dec-19 12:21N 54°32' E 010°46'8 9.6
2014-Dec-19 11:33N 54°34' E 010°58'9 9.3
2014-Dec-19 10:33N 54°34' E 011°14'8 8.3
2014-Dec-19 09:33N 54°31' E 011°28'10 9.8
2014-Dec-19 08:33N 54°28' E 011°44'1010.2
2014-Dec-19 07:32N 54°27' E 012°02'66 9.4
2014-Dec-19 00:30N 54°59' E 013°42'8 8.5
2014-Dec-18 23:33N 55°02' E 013°55'8 8.3
2014-Dec-18 22:33N 55°06' E 014°08'8 7.9
2014-Dec-18 21:33N 55°13' E 014°16'9 8.7
2014-Dec-18 20:33N 55°19' E 014°26'9 9.1
2014-Dec-18 19:33N 55°26' E 014°37'9 8.7
2014-Dec-18 18:33N 55°31' E 014°50'9 8.9
2014-Dec-18 17:33N 55°35' E 015°03'10 9.8
2014-Dec-18 16:30N 55°40' E 015°19'377 9.9
2014-Dec-17 02:33N 59°39' E 024°24'10 9.9
2014-Dec-17 01:33N 59°43' E 024°42'166 9.7
2014-Dec-16 08:24N 59°53' E 030°12'1 0.8
2014-Dec-16 07:30N 59°54' E 030°13'0 0.0
2014-Dec-16 06:33N 59°54' E 030°13'0 0.0
2014-Dec-16 05:30N 59°54' E 030°13'0 0.0
2014-Dec-16 04:06N 59°54' E 030°13'0 0.0
2014-Dec-16 02:30N 59°54' E 030°13'0 0.0
2014-Dec-16 01:06N 59°54' E 030°13'0 0.0
2014-Dec-16 00:03N 59°54' E 030°13'0 0.0
2014-Dec-15 23:12N 59°54' E 030°13'0 0.0
2014-Dec-15 22:30N 59°54' E 030°13'0 0.0
2014-Dec-15 21:15N 59°54' E 030°13'0 0.0
2014-Dec-15 20:11N 59°54' E 030°13'0 0.0
2014-Dec-15 19:32N 59°54' E 030°13'0 0.0
2014-Dec-15 18:17N 59°54' E 030°13'0 0.0
2014-Dec-15 17:05N 59°54' E 030°13'0 0.0
2014-Dec-15 16:29N 59°54' E 030°13'0 0.0
2014-Dec-15 15:29N 59°54' E 030°13'0 0.0
2014-Dec-15 14:26N 59°54' E 030°13'0 0.0
2014-Dec-15 13:32N 59°54' E 030°13'0 0.0
2014-Dec-15 12:14N 59°54' E 030°13'0 0.0
2014-Dec-15 11:32N 59°54' E 030°13'0 0.0
2014-Dec-15 09:29N 59°54' E 030°13'0 0.0
2014-Dec-15 04:32N 59°54' E 030°13'0 0.0
2014-Dec-15 03:32N 59°54' E 030°13'0 0.0
2014-Dec-15 02:32N 59°54' E 030°13'0 0.0
2014-Dec-15 01:32N 59°54' E 030°13'0 0.0
2014-Dec-15 00:32N 59°54' E 030°13'0 0.0
2014-Dec-14 23:08N 59°54' E 030°13'0 0.0
2014-Dec-14 22:26N 59°54' E 030°13'0 0.2
2014-Dec-14 21:22N 59°54' E 030°13'1 0.9
2014-Dec-14 20:29N 59°54' E 030°14'0 0.0
2014-Dec-14 19:32N 59°54' E 030°14'0 0.0
2014-Dec-14 18:29N 59°54' E 030°14'0 0.0
2014-Dec-14 17:29N 59°54' E 030°14'0 0.0
2014-Dec-14 16:32N 59°54' E 030°14'0 0.0
2014-Dec-14 15:29N 59°54' E 030°14'0 0.0
2014-Dec-14 14:29N 59°54' E 030°14'0 0.0
2014-Dec-14 13:29N 59°54' E 030°14'0 0.0
2014-Dec-14 12:32N 59°54' E 030°14'0 0.0
2014-Dec-14 11:23N 59°54' E 030°14'0 0.0
2014-Dec-14 10:23N 59°54' E 030°14'0 0.0
2014-Dec-14 09:29N 59°54' E 030°14'0 0.0
2014-Dec-14 08:29N 59°54' E 030°14'0 0.0
2014-Dec-14 07:17N 59°54' E 030°14'0 0.0
2014-Dec-14 06:29N 59°54' E 030°14'0 0.0
2014-Dec-14 05:32N 59°54' E 030°14'0 0.0
2014-Dec-14 04:32N 59°54' E 030°14'0 0.0
2014-Dec-14 03:32N 59°54' E 030°14'0 0.0
2014-Dec-14 02:29N 59°54' E 030°14'0 0.0
2014-Dec-14 01:29N 59°54' E 030°14'0 0.0
2014-Dec-14 00:29N 59°54' E 030°14'0 0.0
2014-Dec-13 23:29N 59°54' E 030°14'0 0.0
2014-Dec-13 22:32N 59°54' E 030°14'0 0.0
2014-Dec-13 21:29N 59°54' E 030°14'0 0.0
2014-Dec-13 20:29N 59°54' E 030°14'0 0.0
2014-Dec-13 19:29N 59°54' E 030°14'0 0.0
2014-Dec-13 18:29N 59°54' E 030°14'0 0.0
2014-Dec-13 16:32N 59°54' E 030°14'0 0.0
2014-Dec-13 15:29N 59°54' E 030°14'0 0.0
2014-Dec-13 14:29N 59°54' E 030°14'0 0.0
2014-Dec-13 13:29N 59°54' E 030°14'0 0.0
2014-Dec-13 12:28N 59°54' E 030°14'0 0.0
2014-Dec-13 11:31N 59°54' E 030°14'0 0.0
2014-Dec-13 10:19N 59°54' E 030°14'0 0.0
2014-Dec-13 09:31N 59°54' E 030°14'0 0.0
2014-Dec-13 07:28N 59°54' E 030°14'0 0.0
2014-Dec-13 06:28N 59°54' E 030°14'0 0.0
2014-Dec-13 04:22N 59°54' E 030°14'0 0.0
2014-Dec-13 03:28N 59°54' E 030°14'0 0.0
2014-Dec-13 02:31N 59°54' E 030°14'0 0.0
2014-Dec-13 01:28N 59°54' E 030°14'0 0.0
2014-Dec-13 00:28N 59°54' E 030°14'0 0.0
2014-Dec-12 23:28N 59°54' E 030°14'0 0.0
2014-Dec-12 22:28N 59°54' E 030°14'0 0.0
2014-Dec-12 21:28N 59°54' E 030°14'0 0.0
2014-Dec-12 20:28N 59°54' E 030°14'0 0.0
2014-Dec-12 19:28N 59°54' E 030°14'0 0.0
2014-Dec-12 18:28N 59°54' E 030°14'0 0.0
2014-Dec-12 17:28N 59°54' E 030°14'0 0.0
2014-Dec-12 16:28N 59°54' E 030°14'0 0.0
2014-Dec-12 15:28N 59°54' E 030°14'0 0.0
2014-Dec-12 14:28N 59°54' E 030°14'0 0.0
2014-Dec-12 13:22N 59°54' E 030°14'0 0.0
2014-Dec-12 12:28N 59°54' E 030°14'0 0.0
2014-Dec-12 11:28N 59°54' E 030°14'0 0.0
2014-Dec-12 10:31N 59°54' E 030°14'0 0.0
2014-Dec-12 09:28N 59°54' E 030°14'0 0.0
2014-Dec-12 08:31N 59°54' E 030°14'0 0.0
2014-Dec-12 07:22N 59°54' E 030°14'0 0.0
2014-Dec-12 06:31N 59°54' E 030°14'0 0.0
2014-Dec-12 05:28N 59°54' E 030°14'0 0.0
2014-Dec-12 04:31N 59°54' E 030°14'0 0.0
2014-Dec-12 03:28N 59°54' E 030°14'0 0.0
2014-Dec-12 02:28N 59°54' E 030°14'0 0.0
2014-Dec-12 01:34N 59°54' E 030°14'0 0.0
2014-Dec-12 00:30N 59°54' E 030°14'0 0.0
2014-Dec-11 23:33N 59°54' E 030°14'0 0.0
2014-Dec-11 22:33N 59°54' E 030°14'0 0.0
2014-Dec-11 21:33N 59°54' E 030°14'0 0.0
2014-Dec-11 20:33N 59°54' E 030°14'0 0.0
2014-Dec-11 19:33N 59°54' E 030°14'0 0.0
2014-Dec-11 18:33N 59°54' E 030°14'  
Track history (hours):
 
Tides and Currents Weather Stations Pressure Air Temp Water Temp Dewpoint Dewpoint Depression Visibility Wind Speed Wind Dir Waves Ship Positions

Flinterbothnia

Last reported at 2014-Dec-21 18:33 UTC. Time now 2014-Dec-21 19:27 UTC.
Position N 53°19' E 007°01'.

Length 82 m; draft 5.2 m.

Type: Cargo ship. MMSI: 244741000.

Date/timePositionNaut miles runAvg speedWind from/ knotsBaromVisibWave heightAir tempDewpointWater temp
2014-Dec-21 18:33N 53°19' E 007°01'0 0.0
2014-Dec-21 17:33N 53°19' E 007°02'0 0.1
2014-Dec-21 16:32N 53°19' E 007°01'0 0.1
2014-Dec-21 15:32N 53°19' E 007°01'0 0.0
2014-Dec-21 14:32N 53°19' E 007°01'0 0.0
2014-Dec-21 13:32N 53°19' E 007°01'0 0.0
2014-Dec-21 12:32N 53°19' E 007°01'0 0.0
2014-Dec-21 11:32N 53°19' E 007°01'0 0.2
2014-Dec-21 10:32N 53°19' E 007°01'0 0.0
2014-Dec-21 09:32N 53°19' E 007°01'0 0.0
2014-Dec-21 08:32N 53°19' E 007°01'0 0.0
2014-Dec-21 07:32N 53°19' E 007°01'0 0.0
2014-Dec-21 06:32N 53°19' E 007°01'0 0.0
2014-Dec-21 05:32N 53°19' E 007°01'0 0.1
2014-Dec-21 04:32N 53°19' E 007°01'0 0.0
2014-Dec-21 03:32N 53°19' E 007°01'0 0.0
2014-Dec-21 02:32N 53°19' E 007°01'0 0.1
2014-Dec-21 01:32N 53°19' E 007°01'0 0.0
2014-Dec-21 00:32N 53°19' E 007°01'0 0.1
2014-Dec-20 23:32N 53°19' E 007°01'0 0.2
2014-Dec-20 22:32N 53°19' E 007°02'0 0.0
2014-Dec-20 21:32N 53°19' E 007°02'0 0.0
2014-Dec-20 20:32N 53°19' E 007°02'2 1.6
2014-Dec-20 19:33N 53°20' E 006°60'1111.4
2014-Dec-20 18:33N 53°30' E 006°49'1211.7
2014-Dec-20 17:31N 53°37' E 006°32'4 2.2
2014-Dec-20 15:33N 53°41' E 006°32'6 6.2
2014-Dec-20 14:33N 53°44' E 006°41'34 6.6
2014-Dec-20 09:26N 53°53' E 007°36'7 5.5
2014-Dec-20 08:10N 53°55' E 007°48'3 4.8
2014-Dec-20 07:33N 53°56' E 007°53'5 4.9
2014-Dec-20 06:33N 53°57' E 008°01'5 4.9
2014-Dec-20 05:33N 54°00' E 008°07'4 3.8
2014-Dec-20 04:33N 54°00' E 008°13'7 7.0
2014-Dec-20 03:33N 53°59' E 008°25'1111.4
2014-Dec-20 02:34N 53°54' E 008°42'1111.1
2014-Dec-20 01:33N 53°51' E 009°00'5 5.4
2014-Dec-20 00:33N 53°54' E 009°09'5 4.6
2014-Dec-19 23:33N 53°57' E 009°14'6 6.0
2014-Dec-19 22:33N 54°02' E 009°18'6 5.8
2014-Dec-19 21:28N 54°09' E 009°21'8 8.4
2014-Dec-19 20:33N 54°12' E 009°33'6 6.1
2014-Dec-19 19:31N 54°17' E 009°39'4 3.7
2014-Dec-19 18:33N 54°19' E 009°43'6 6.5
2014-Dec-19 17:33N 54°21' E 009°54'8 7.9
2014-Dec-19 16:33N 54°22' E 010°07'2 1.6
2014-Dec-19 15:33N 54°22' E 010°10'3 2.6
2014-Dec-19 14:33N 54°24' E 010°12'9 9.2
2014-Dec-19 13:33N 54°29' E 010°26'12 9.8
2014-Dec-19 12:21N 54°32' E 010°46'8 9.6
2014-Dec-19 11:33N 54°34' E 010°58'9 9.3
2014-Dec-19 10:33N 54°34' E 011°14'8 8.3
2014-Dec-19 09:33N 54°31' E 011°28'10 9.8
2014-Dec-19 08:33N 54°28' E 011°44'1010.2
2014-Dec-19 07:32N 54°27' E 012°02'66 9.4
2014-Dec-19 00:30N 54°59' E 013°42'8 8.5
2014-Dec-18 23:33N 55°02' E 013°55'8 8.3
2014-Dec-18 22:33N 55°06' E 014°08'8 7.9
2014-Dec-18 21:33N 55°13' E 014°16'9 8.7
2014-Dec-18 20:33N 55°19' E 014°26'9 9.1
2014-Dec-18 19:33N 55°26' E 014°37'9 8.7
2014-Dec-18 18:33N 55°31' E 014°50'9 8.9
2014-Dec-18 17:33N 55°35' E 015°03'10 9.8
2014-Dec-18 16:30N 55°40' E 015°19'377 9.9
2014-Dec-17 02:33N 59°39' E 024°24'10 9.9
2014-Dec-17 01:33N 59°43' E 024°42'166 9.7
2014-Dec-16 08:24N 59°53' E 030°12'1 0.8
2014-Dec-16 07:30N 59°54' E 030°13'0 0.0
2014-Dec-16 06:33N 59°54' E 030°13'0 0.0
2014-Dec-16 05:30N 59°54' E 030°13'0 0.0
2014-Dec-16 04:06N 59°54' E 030°13'0 0.0
2014-Dec-16 02:30N 59°54' E 030°13'0 0.0
2014-Dec-16 01:06N 59°54' E 030°13'0 0.0
2014-Dec-16 00:03N 59°54' E 030°13'0 0.0
2014-Dec-15 23:12N 59°54' E 030°13'0 0.0
2014-Dec-15 22:30N 59°54' E 030°13'0 0.0
2014-Dec-15 21:15N 59°54' E 030°13'0 0.0
2014-Dec-15 20:11N 59°54' E 030°13'0 0.0
2014-Dec-15 19:32N 59°54' E 030°13'0 0.0
2014-Dec-15 18:17N 59°54' E 030°13'0 0.0
2014-Dec-15 17:05N 59°54' E 030°13'0 0.0
2014-Dec-15 16:29N 59°54' E 030°13'0 0.0
2014-Dec-15 15:29N 59°54' E 030°13'0 0.0
2014-Dec-15 14:26N 59°54' E 030°13'0 0.0
2014-Dec-15 13:32N 59°54' E 030°13'0 0.0
2014-Dec-15 12:14N 59°54' E 030°13'0 0.0
2014-Dec-15 11:32N 59°54' E 030°13'0 0.0
2014-Dec-15 09:29N 59°54' E 030°13'0 0.0
2014-Dec-15 04:32N 59°54' E 030°13'0 0.0
2014-Dec-15 03:32N 59°54' E 030°13'0 0.0
2014-Dec-15 02:32N 59°54' E 030°13'0 0.0
2014-Dec-15 01:32N 59°54' E 030°13'0 0.0
2014-Dec-15 00:32N 59°54' E 030°13'0 0.0
2014-Dec-14 23:08N 59°54' E 030°13'0 0.0
2014-Dec-14 22:26N 59°54' E 030°13'0 0.2
2014-Dec-14 21:22N 59°54' E 030°13'1 0.9
2014-Dec-14 20:29N 59°54' E 030°14'0 0.0
2014-Dec-14 19:32N 59°54' E 030°14'0 0.0
2014-Dec-14 18:29N 59°54' E 030°14'0 0.0
2014-Dec-14 17:29N 59°54' E 030°14'0 0.0
2014-Dec-14 16:32N 59°54' E 030°14'0 0.0
2014-Dec-14 15:29N 59°54' E 030°14'0 0.0
2014-Dec-14 14:29N 59°54' E 030°14'0 0.0
2014-Dec-14 13:29N 59°54' E 030°14'0 0.0
2014-Dec-14 12:32N 59°54' E 030°14'0 0.0
2014-Dec-14 11:23N 59°54' E 030°14'0 0.0
2014-Dec-14 10:23N 59°54' E 030°14'0 0.0
2014-Dec-14 09:29N 59°54' E 030°14'0 0.0
2014-Dec-14 08:29N 59°54' E 030°14'0 0.0
2014-Dec-14 07:17N 59°54' E 030°14'0 0.0
2014-Dec-14 06:29N 59°54' E 030°14'0 0.0
2014-Dec-14 05:32N 59°54' E 030°14'0 0.0
2014-Dec-14 04:32N 59°54' E 030°14'0 0.0
2014-Dec-14 03:32N 59°54' E 030°14'0 0.0
2014-Dec-14 02:29N 59°54' E 030°14'0 0.0
2014-Dec-14 01:29N 59°54' E 030°14'0 0.0
2014-Dec-14 00:29N 59°54' E 030°14'0 0.0
2014-Dec-13 23:29N 59°54' E 030°14'0 0.0
2014-Dec-13 22:32N 59°54' E 030°14'0 0.0
2014-Dec-13 21:29N 59°54' E 030°14'0 0.0
2014-Dec-13 20:29N 59°54' E 030°14'0 0.0
2014-Dec-13 19:29N 59°54' E 030°14'0 0.0
2014-Dec-13 18:29N 59°54' E 030°14'0 0.0
2014-Dec-13 16:32N 59°54' E 030°14'0 0.0
2014-Dec-13 15:29N 59°54' E 030°14'0 0.0
2014-Dec-13 14:29N 59°54' E 030°14'0 0.0
2014-Dec-13 13:29N 59°54' E 030°14'0 0.0
2014-Dec-13 12:28N 59°54' E 030°14'0 0.0
2014-Dec-13 11:31N 59°54' E 030°14'0 0.0
2014-Dec-13 10:19N 59°54' E 030°14'0 0.0
2014-Dec-13 09:31N 59°54' E 030°14'0 0.0
2014-Dec-13 07:28N 59°54' E 030°14'0 0.0
2014-Dec-13 06:28N 59°54' E 030°14'0 0.0
2014-Dec-13 04:22N 59°54' E 030°14'0 0.0
2014-Dec-13 03:28N 59°54' E 030°14'0 0.0
2014-Dec-13 02:31N 59°54' E 030°14'0 0.0
2014-Dec-13 01:28N 59°54' E 030°14'0 0.0
2014-Dec-13 00:28N 59°54' E 030°14'0 0.0
2014-Dec-12 23:28N 59°54' E 030°14'0 0.0
2014-Dec-12 22:28N 59°54' E 030°14'0 0.0
2014-Dec-12 21:28N 59°54' E 030°14'0 0.0
2014-Dec-12 20:28N 59°54' E 030°14'0 0.0
2014-Dec-12 19:28N 59°54' E 030°14'0 0.0
2014-Dec-12 18:28N 59°54' E 030°14'0 0.0
2014-Dec-12 17:28N 59°54' E 030°14'0 0.0
2014-Dec-12 16:28N 59°54' E 030°14'0 0.0
2014-Dec-12 15:28N 59°54' E 030°14'0 0.0
2014-Dec-12 14:28N 59°54' E 030°14'0 0.0
2014-Dec-12 13:22N 59°54' E 030°14'0 0.0
2014-Dec-12 12:28N 59°54' E 030°14'0 0.0
2014-Dec-12 11:28N 59°54' E 030°14'0 0.0
2014-Dec-12 10:31N 59°54' E 030°14'0 0.0
2014-Dec-12 09:28N 59°54' E 030°14'0 0.0
2014-Dec-12 08:31N 59°54' E 030°14'0 0.0
2014-Dec-12 07:22N 59°54' E 030°14'0 0.0
2014-Dec-12 06:31N 59°54' E 030°14'0 0.0
2014-Dec-12 05:28N 59°54' E 030°14'0 0.0
2014-Dec-12 04:31N 59°54' E 030°14'0 0.0
2014-Dec-12 03:28N 59°54' E 030°14'0 0.0
2014-Dec-12 02:28N 59°54' E 030°14'0 0.0
2014-Dec-12 01:34N 59°54' E 030°14'0 0.0
2014-Dec-12 00:30N 59°54' E 030°14'0 0.0
2014-Dec-11 23:33N 59°54' E 030°14'0 0.0
2014-Dec-11 22:33N 59°54' E 030°14'0 0.0
2014-Dec-11 21:33N 59°54' E 030°14'0 0.0
2014-Dec-11 20:33N 59°54' E 030°14'0 0.0
2014-Dec-11 19:33N 59°54' E 030°14'0 0.0
2014-Dec-11 18:33N 59°54' E 030°14'  

Dump ship's entire track history